sensor_id;sensor_type;location;lat;lon;timestamp;pressure;altitude;pressure_sealevel;temperature;humidity
26865;BME280;40618;51.166;10.322;2023-05-29T00:00:16;97728.03;;;15.17;50.67
26865;BME280;40618;51.166;10.322;2023-05-29T00:02:43;97726.59;;;15.10;50.54
26865;BME280;40618;51.166;10.322;2023-05-29T00:05:10;97731.09;;;15.06;50.91
26865;BME280;40618;51.166;10.322;2023-05-29T00:07:38;97733.59;;;15.09;50.92
26865;BME280;40618;51.166;10.322;2023-05-29T00:10:05;97725.78;;;15.09;50.88
26865;BME280;40618;51.166;10.322;2023-05-29T00:12:32;97723.19;;;15.07;51.13
26865;BME280;40618;51.166;10.322;2023-05-29T00:14:58;97721.38;;;15.10;50.95
26865;BME280;40618;51.166;10.322;2023-05-29T00:17:25;97732.66;;;15.10;51.36
26865;BME280;40618;51.166;10.322;2023-05-29T00:19:50;97725.88;;;15.06;51.20
26865;BME280;40618;51.166;10.322;2023-05-29T00:22:16;97729.97;;;14.93;51.13
26865;BME280;40618;51.166;10.322;2023-05-29T00:24:42;97732.59;;;14.91;51.06
26865;BME280;40618;51.166;10.322;2023-05-29T00:27:09;97735.22;;;14.91;51.02
26865;BME280;40618;51.166;10.322;2023-05-29T00:29:36;97730.22;;;14.86;51.17
26865;BME280;40618;51.166;10.322;2023-05-29T00:32:04;97727.75;;;14.83;51.20
26865;BME280;40618;51.166;10.322;2023-05-29T00:34:30;97731.41;;;14.79;51.17
26865;BME280;40618;51.166;10.322;2023-05-29T00:36:56;97736.69;;;14.78;51.54
26865;BME280;40618;51.166;10.322;2023-05-29T00:39:22;97740.25;;;14.75;51.27
26865;BME280;40618;51.166;10.322;2023-05-29T00:41:48;97735.44;;;14.66;51.22
26865;BME280;40618;51.166;10.322;2023-05-29T00:44:19;97742.50;;;14.62;51.34
26865;BME280;40618;51.166;10.322;2023-05-29T00:46:46;97735.00;;;14.54;51.72
26865;BME280;40618;51.166;10.322;2023-05-29T00:49:12;97736.69;;;14.55;51.90
26865;BME280;40618;51.166;10.322;2023-05-29T00:51:39;97741.72;;;14.60;51.51
26865;BME280;40618;51.166;10.322;2023-05-29T00:54:07;97733.84;;;14.62;51.51
26865;BME280;40618;51.166;10.322;2023-05-29T00:56:41;97733.09;;;14.58;51.33
26865;BME280;40618;51.166;10.322;2023-05-29T00:59:11;97731.47;;;14.55;51.82
26865;BME280;40618;51.166;10.322;2023-05-29T01:01:37;97732.47;;;14.53;51.95
26865;BME280;40618;51.166;10.322;2023-05-29T01:04:05;97731.69;;;14.51;51.78
26865;BME280;40618;51.166;10.322;2023-05-29T01:06:35;97736.56;;;14.38;51.94
26865;BME280;40618;51.166;10.322;2023-05-29T01:09:02;97739.59;;;14.27;52.03
26865;BME280;40618;51.166;10.322;2023-05-29T01:11:41;97737.97;;;14.25;52.17
26865;BME280;40618;51.166;10.322;2023-05-29T01:14:17;97740.03;;;14.16;52.43
26865;BME280;40618;51.166;10.322;2023-05-29T01:17:13;97745.59;;;14.07;52.28
26865;BME280;40618;51.166;10.322;2023-05-29T01:23:04;97743.22;;;14.01;52.48
26865;BME280;40618;51.166;10.322;2023-05-29T01:28:32;97734.81;;;13.94;52.63
26865;BME280;40618;51.166;10.322;2023-05-29T01:31:03;97742.91;;;13.86;52.56
26865;BME280;40618;51.166;10.322;2023-05-29T01:33:29;97728.50;;;13.78;52.70
26865;BME280;40618;51.166;10.322;2023-05-29T01:35:55;97735.16;;;13.63;52.78
26865;BME280;40618;51.166;10.322;2023-05-29T01:38:21;97734.28;;;13.62;52.95
26865;BME280;40618;51.166;10.322;2023-05-29T01:40:47;97740.59;;;13.57;53.09
26865;BME280;40618;51.166;10.322;2023-05-29T01:43:13;97742.22;;;13.59;53.07
26865;BME280;40618;51.166;10.322;2023-05-29T01:45:39;97748.75;;;13.69;53.35
26865;BME280;40618;51.166;10.322;2023-05-29T01:48:06;97745.03;;;13.77;53.26
26865;BME280;40618;51.166;10.322;2023-05-29T01:50:32;97749.31;;;13.78;53.28
26865;BME280;40618;51.166;10.322;2023-05-29T01:52:59;97754.50;;;13.79;53.44
26865;BME280;40618;51.166;10.322;2023-05-29T01:55:24;97750.06;;;13.81;53.53
26865;BME280;40618;51.166;10.322;2023-05-29T01:57:50;97753.47;;;13.83;53.61
26865;BME280;40618;51.166;10.322;2023-05-29T02:00:17;97749.22;;;13.81;53.59
26865;BME280;40618;51.166;10.322;2023-05-29T02:02:44;97740.59;;;13.79;53.73
26865;BME280;40618;51.166;10.322;2023-05-29T02:05:09;97746.91;;;13.73;53.65
26865;BME280;40618;51.166;10.322;2023-05-29T02:07:35;97750.78;;;13.63;53.74
26865;BME280;40618;51.166;10.322;2023-05-29T02:10:05;97743.88;;;13.62;53.98
26865;BME280;40618;51.166;10.322;2023-05-29T02:12:31;97749.69;;;13.68;54.13
26865;BME280;40618;51.166;10.322;2023-05-29T02:14:58;97749.69;;;13.68;54.01
26865;BME280;40618;51.166;10.322;2023-05-29T02:17:24;97748.75;;;13.69;54.21
26865;BME280;40618;51.166;10.322;2023-05-29T02:19:50;97752.50;;;13.62;54.23
26865;BME280;40618;51.166;10.322;2023-05-29T02:22:17;97751.59;;;13.63;54.26
26865;BME280;40618;51.166;10.322;2023-05-29T02:24:43;97752.56;;;13.61;54.57
26865;BME280;40618;51.166;10.322;2023-05-29T02:27:08;97753.59;;;13.57;54.28
26865;BME280;40618;51.166;10.322;2023-05-29T02:29:34;97756.13;;;13.58;54.40
26865;BME280;40618;51.166;10.322;2023-05-29T02:32:00;97754.34;;;13.60;54.28
26865;BME280;40618;51.166;10.322;2023-05-29T02:34:25;97753.41;;;13.61;54.46
26865;BME280;40618;51.166;10.322;2023-05-29T02:36:52;97747.59;;;13.54;54.43
26865;BME280;40618;51.166;10.322;2023-05-29T02:39:18;97744.38;;;13.48;54.60
26865;BME280;40618;51.166;10.322;2023-05-29T02:41:44;97744.38;;;13.48;54.92
26865;BME280;40618;51.166;10.322;2023-05-29T02:44:10;97749.63;;;13.46;54.78
26865;BME280;40618;51.166;10.322;2023-05-29T02:46:36;97752.53;;;13.39;54.86
26865;BME280;40618;51.166;10.322;2023-05-29T02:49:01;97752.59;;;13.37;54.89
26865;BME280;40618;51.166;10.322;2023-05-29T02:51:27;97754.34;;;13.35;54.96
26865;BME280;40618;51.166;10.322;2023-05-29T02:53:53;97756.91;;;13.36;55.09
26865;BME280;40618;51.166;10.322;2023-05-29T02:56:19;97762.06;;;13.38;55.13
26865;BME280;40618;51.166;10.322;2023-05-29T02:58:51;97757.91;;;13.32;55.07
26865;BME280;40618;51.166;10.322;2023-05-29T03:01:17;97755.34;;;13.31;55.20
26865;BME280;40618;51.166;10.322;2023-05-29T03:03:43;97766.50;;;13.34;55.23
26865;BME280;40618;51.166;10.322;2023-05-29T03:06:08;97765.66;;;13.34;55.37
26865;BME280;40618;51.166;10.322;2023-05-29T03:08:35;97754.47;;;13.32;55.40
26865;BME280;40618;51.166;10.322;2023-05-29T03:11:05;97760.56;;;13.31;55.44
26865;BME280;40618;51.166;10.322;2023-05-29T03:13:34;97759.53;;;13.36;55.60
26865;BME280;40618;51.166;10.322;2023-05-29T03:15:59;97771.56;;;13.39;55.74
26865;BME280;40618;51.166;10.322;2023-05-29T03:18:25;97768.19;;;13.37;55.64
26865;BME280;40618;51.166;10.322;2023-05-29T03:20:50;97780.19;;;13.41;55.87
26865;BME280;40618;51.166;10.322;2023-05-29T03:23:16;97783.69;;;13.40;55.86
26865;BME280;40618;51.166;10.322;2023-05-29T03:25:42;97778.53;;;13.39;55.92
26865;BME280;40618;51.166;10.322;2023-05-29T03:28:07;97783.63;;;13.42;55.91
26865;BME280;40618;51.166;10.322;2023-05-29T03:30:33;97776.72;;;13.41;55.92
26865;BME280;40618;51.166;10.322;2023-05-29T03:32:59;97777.72;;;13.36;56.49
26865;BME280;40618;51.166;10.322;2023-05-29T03:35:29;97782.94;;;13.35;56.25
26865;BME280;40618;51.166;10.322;2023-05-29T03:37:55;97782.09;;;13.36;56.36
26865;BME280;40618;51.166;10.322;2023-05-29T03:40:21;97784.69;;;13.36;56.37
26865;BME280;40618;51.166;10.322;2023-05-29T03:42:46;97779.50;;;13.36;56.57
26865;BME280;40618;51.166;10.322;2023-05-29T03:45:12;97783.84;;;13.35;56.34
26865;BME280;40618;51.166;10.322;2023-05-29T03:47:37;97787.38;;;13.33;56.28
26865;BME280;40618;51.166;10.322;2023-05-29T03:50:03;97783.84;;;13.35;56.56
26865;BME280;40618;51.166;10.322;2023-05-29T03:52:29;97785.47;;;13.38;56.49
26865;BME280;40618;51.166;10.322;2023-05-29T03:54:55;97781.97;;;13.39;56.77
26865;BME280;40618;51.166;10.322;2023-05-29T03:57:20;97795.72;;;13.43;56.73
26865;BME280;40618;51.166;10.322;2023-05-29T03:59:46;97798.31;;;13.43;56.36
26865;BME280;40618;51.166;10.322;2023-05-29T04:02:12;97792.31;;;13.41;56.81
26865;BME280;40618;51.166;10.322;2023-05-29T04:04:37;97800.94;;;13.43;56.62
26865;BME280;40618;51.166;10.322;2023-05-29T04:07:05;97794.03;;;13.42;56.78
26865;BME280;40618;51.166;10.322;2023-05-29T04:09:32;97803.66;;;13.40;56.79
26865;BME280;40618;51.166;10.322;2023-05-29T04:11:59;97805.25;;;13.42;56.79
26865;BME280;40618;51.166;10.322;2023-05-29T04:14:28;97811.38;;;13.41;56.79
26865;BME280;40618;51.166;10.322;2023-05-29T04:16:53;97815.63;;;13.44;56.79
26865;BME280;40618;51.166;10.322;2023-05-29T04:19:19;97814.84;;;13.42;56.93
26865;BME280;40618;51.166;10.322;2023-05-29T04:21:46;97813.13;;;13.41;56.94
26865;BME280;40618;51.166;10.322;2023-05-29T04:24:14;97814.88;;;13.40;57.13
26865;BME280;40618;51.166;10.322;2023-05-29T04:26:40;97823.44;;;13.44;57.01
26865;BME280;40618;51.166;10.322;2023-05-29T04:29:06;97830.38;;;13.43;56.67
26865;BME280;40618;51.166;10.322;2023-05-29T04:31:33;97830.25;;;13.46;57.24
26865;BME280;40618;51.166;10.322;2023-05-29T04:33:58;97837.09;;;13.49;56.90
26865;BME280;40618;51.166;10.322;2023-05-29T04:36:26;97837.91;;;13.51;57.15
26865;BME280;40618;51.166;10.322;2023-05-29T04:38:53;97838.88;;;13.48;57.13
26865;BME280;40618;51.166;10.322;2023-05-29T04:41:20;97844.06;;;13.48;57.10
26865;BME280;40618;51.166;10.322;2023-05-29T04:43:49;97845.88;;;13.46;57.24
26865;BME280;40618;51.166;10.322;2023-05-29T04:46:16;97845.84;;;13.48;57.17
26865;BME280;40618;51.166;10.322;2023-05-29T04:48:42;97851.88;;;13.48;57.31
26865;BME280;40618;51.166;10.322;2023-05-29T04:51:09;97852.78;;;13.47;57.46
26865;BME280;40618;51.166;10.322;2023-05-29T04:53:39;97859.84;;;13.44;57.28
26865;BME280;40618;51.166;10.322;2023-05-29T04:56:08;97858.16;;;13.43;57.37
26865;BME280;40618;51.166;10.322;2023-05-29T04:58:35;97866.78;;;13.43;57.39
26865;BME280;40618;51.166;10.322;2023-05-29T05:01:00;97861.59;;;13.43;57.32
26865;BME280;40618;51.166;10.322;2023-05-29T05:03:29;97862.34;;;13.47;57.48
26865;BME280;40618;51.166;10.322;2023-05-29T05:05:56;97855.38;;;13.47;57.64
26865;BME280;40618;51.166;10.322;2023-05-29T05:08:22;97856.25;;;13.48;57.35
26865;BME280;40618;51.166;10.322;2023-05-29T05:10:48;97862.28;;;13.48;57.40
26865;BME280;40618;51.166;10.322;2023-05-29T05:13:13;97861.44;;;13.48;57.40
26865;BME280;40618;51.166;10.322;2023-05-29T05:15:39;97855.50;;;13.44;57.61
26865;BME280;40618;51.166;10.322;2023-05-29T05:18:05;97863.28;;;13.44;57.71
26865;BME280;40618;51.166;10.322;2023-05-29T05:20:30;97861.66;;;13.42;58.12
26865;BME280;40618;51.166;10.322;2023-05-29T05:22:56;97864.13;;;13.45;57.73
26865;BME280;40618;51.166;10.322;2023-05-29T05:25:22;97868.44;;;13.46;57.84
26865;BME280;40618;51.166;10.322;2023-05-29T05:27:48;97867.50;;;13.48;57.67
26865;BME280;40618;51.166;10.322;2023-05-29T05:30:13;97867.44;;;13.50;57.64
26865;BME280;40618;51.166;10.322;2023-05-29T05:32:39;97862.13;;;13.53;57.74
26865;BME280;40618;51.166;10.322;2023-05-29T05:35:05;97862.88;;;13.57;57.79
26865;BME280;40618;51.166;10.322;2023-05-29T05:37:30;97859.31;;;13.59;57.55
26865;BME280;40618;51.166;10.322;2023-05-29T05:39:56;97864.38;;;13.62;57.67
26865;BME280;40618;51.166;10.322;2023-05-29T05:42:23;97872.00;;;13.68;57.87
26865;BME280;40618;51.166;10.322;2023-05-29T05:44:49;97870.06;;;13.74;57.77
26865;BME280;40618;51.166;10.322;2023-05-29T05:47:14;97873.34;;;13.79;57.74
26865;BME280;40618;51.166;10.322;2023-05-29T05:49:40;97874.88;;;13.84;57.72
26865;BME280;40618;51.166;10.322;2023-05-29T05:52:06;97878.03;;;13.93;57.68
26865;BME280;40618;51.166;10.322;2023-05-29T05:54:31;97871.72;;;14.00;57.54
26865;BME280;40618;51.166;10.322;2023-05-29T05:56:57;97875.09;;;14.02;57.75
26865;BME280;40618;51.166;10.322;2023-05-29T05:59:22;97878.38;;;14.07;57.56
26865;BME280;40618;51.166;10.322;2023-05-29T06:01:48;97880.81;;;14.12;57.43
26865;BME280;40618;51.166;10.322;2023-05-29T06:04:14;97878.81;;;14.18;57.59
26865;BME280;40618;51.166;10.322;2023-05-29T06:06:39;97878.72;;;14.21;57.35
26865;BME280;40618;51.166;10.322;2023-05-29T06:09:06;97874.22;;;14.25;57.05
26865;BME280;40618;51.166;10.322;2023-05-29T06:11:31;97877.38;;;14.33;57.37
26865;BME280;40618;51.166;10.322;2023-05-29T06:13:57;97884.13;;;14.39;57.21
26865;BME280;40618;51.166;10.322;2023-05-29T06:16:23;97885.59;;;14.46;57.12
26865;BME280;40618;51.166;10.322;2023-05-29T06:18:49;97881.09;;;14.50;57.26
26865;BME280;40618;51.166;10.322;2023-05-29T06:21:14;97880.13;;;14.52;57.06
26865;BME280;40618;51.166;10.322;2023-05-29T06:23:40;97888.75;;;14.54;57.00
26865;BME280;40618;51.166;10.322;2023-05-29T06:26:06;97894.53;;;14.63;57.02
26865;BME280;40618;51.166;10.322;2023-05-29T06:28:32;97896.75;;;14.72;57.24
26865;BME280;40618;51.166;10.322;2023-05-29T06:30:58;97890.41;;;14.79;57.27
26865;BME280;40618;51.166;10.322;2023-05-29T06:33:23;97901.38;;;14.87;56.93
26865;BME280;40618;51.166;10.322;2023-05-29T06:35:49;97901.19;;;14.92;56.73
26865;BME280;40618;51.166;10.322;2023-05-29T06:38:15;97907.91;;;14.98;56.60
26865;BME280;40618;51.166;10.322;2023-05-29T06:40:41;97909.47;;;15.02;56.54
26865;BME280;40618;51.166;10.322;2023-05-29T06:43:06;97918.69;;;15.11;56.51
26865;BME280;40618;51.166;10.322;2023-05-29T06:45:32;97908.00;;;15.17;56.32
26865;BME280;40618;51.166;10.322;2023-05-29T06:47:57;97907.91;;;15.20;56.70
26865;BME280;40618;51.166;10.322;2023-05-29T06:50:23;97907.56;;;15.28;56.54
26865;BME280;40618;51.166;10.322;2023-05-29T06:52:48;97908.22;;;15.33;56.73
26865;BME280;40618;51.166;10.322;2023-05-29T06:55:14;97908.00;;;15.37;56.49
26865;BME280;40618;51.166;10.322;2023-05-29T06:57:40;97908.94;;;15.36;56.26
26865;BME280;40618;51.166;10.322;2023-05-29T07:00:05;97912.38;;;15.37;56.00
26865;BME280;40618;51.166;10.322;2023-05-29T07:02:34;97914.88;;;15.40;55.89
26865;BME280;40618;51.166;10.322;2023-05-29T07:05:00;97919.03;;;15.44;55.86
26865;BME280;40618;51.166;10.322;2023-05-29T07:07:26;97911.03;;;15.49;56.07
26865;BME280;40618;51.166;10.322;2023-05-29T07:09:51;97917.03;;;15.51;56.15
26865;BME280;40618;51.166;10.322;2023-05-29T07:12:17;97923.88;;;15.53;55.75
26865;BME280;40618;51.166;10.322;2023-05-29T07:14:42;97922.69;;;15.61;56.11
26865;BME280;40618;51.166;10.322;2023-05-29T07:17:08;97924.19;;;15.66;56.20
26865;BME280;40618;51.166;10.322;2023-05-29T07:19:34;97923.94;;;15.72;55.96
26865;BME280;40618;51.166;10.322;2023-05-29T07:21:59;97918.44;;;15.79;55.59
26865;BME280;40618;51.166;10.322;2023-05-29T07:24:25;97918.06;;;15.88;55.70
26865;BME280;40618;51.166;10.322;2023-05-29T07:26:52;97917.81;;;15.94;55.79
26865;BME280;40618;51.166;10.322;2023-05-29T07:29:17;97918.50;;;15.98;55.47
26865;BME280;40618;51.166;10.322;2023-05-29T07:31:46;97915.88;;;15.98;55.54
26865;BME280;40618;51.166;10.322;2023-05-29T07:34:12;97918.38;;;16.01;56.03
26865;BME280;40618;51.166;10.322;2023-05-29T07:36:56;97914.50;;;16.10;55.53
26865;BME280;40618;51.166;10.322;2023-05-29T07:39:25;97924.72;;;16.14;55.52
26865;BME280;40618;51.166;10.322;2023-05-29T07:41:51;97931.53;;;16.18;55.81
26865;BME280;40618;51.166;10.322;2023-05-29T07:44:17;97924.31;;;16.23;55.43
26865;BME280;40618;51.166;10.322;2023-05-29T07:46:43;97929.41;;;16.27;55.95
26865;BME280;40618;51.166;10.322;2023-05-29T07:49:09;97923.19;;;16.29;55.66
26865;BME280;40618;51.166;10.322;2023-05-29T07:51:34;97926.81;;;16.27;55.64
26865;BME280;40618;51.166;10.322;2023-05-29T07:54:00;97923.13;;;16.31;55.94
26865;BME280;40618;51.166;10.322;2023-05-29T07:56:26;97924.47;;;16.39;55.65
26865;BME280;40618;51.166;10.322;2023-05-29T07:58:51;97935.19;;;16.52;55.48
26865;BME280;40618;51.166;10.322;2023-05-29T08:01:20;97939.16;;;16.61;55.76
26865;BME280;40618;51.166;10.322;2023-05-29T08:03:46;97937.88;;;16.70;55.95
26865;BME280;40618;51.166;10.322;2023-05-29T08:06:12;97939.13;;;16.80;55.74
26865;BME280;40618;51.166;10.322;2023-05-29T08:08:39;97938.59;;;16.92;55.45
26865;BME280;40618;51.166;10.322;2023-05-29T08:11:04;97940.81;;;17.00;55.81
26865;BME280;40618;51.166;10.322;2023-05-29T08:13:30;97940.00;;;17.17;55.56
26865;BME280;40618;51.166;10.322;2023-05-29T08:15:56;97943.72;;;17.31;55.78
26865;BME280;40618;51.166;10.322;2023-05-29T08:18:25;97946.19;;;17.51;55.48
26865;BME280;40618;51.166;10.322;2023-05-29T08:20:52;97942.69;;;17.68;55.46
26865;BME280;40618;51.166;10.322;2023-05-29T08:23:21;97930.75;;;17.80;54.93
26865;BME280;40618;51.166;10.322;2023-05-29T08:25:46;97940.13;;;17.84;54.87
26865;BME280;40618;51.166;10.322;2023-05-29T08:28:13;97945.03;;;17.92;54.73
26865;BME280;40618;51.166;10.322;2023-05-29T08:30:39;97937.97;;;18.10;54.78
26865;BME280;40618;51.166;10.322;2023-05-29T08:33:05;97939.16;;;18.20;54.61
26865;BME280;40618;51.166;10.322;2023-05-29T08:35:31;97940.53;;;18.27;54.46
26865;BME280;40618;51.166;10.322;2023-05-29T08:37:58;97934.94;;;18.34;54.35
26865;BME280;40618;51.166;10.322;2023-05-29T08:40:24;97929.22;;;18.43;54.58
26865;BME280;40618;51.166;10.322;2023-05-29T08:43:15;97929.03;;;18.46;54.22
26865;BME280;40618;51.166;10.322;2023-05-29T08:45:45;97934.19;;;18.48;54.46
26865;BME280;40618;51.166;10.322;2023-05-29T08:48:16;97938.34;;;18.52;54.28
26865;BME280;40618;51.166;10.322;2023-05-29T08:50:45;97932.06;;;18.54;54.01
26865;BME280;40618;51.166;10.322;2023-05-29T08:53:16;97933.59;;;18.58;53.89
26865;BME280;40618;51.166;10.322;2023-05-29T08:55:43;97930.06;;;18.59;53.97
26865;BME280;40618;51.166;10.322;2023-05-29T08:58:13;97931.66;;;18.62;53.93
26865;BME280;40618;51.166;10.322;2023-05-29T09:00:39;97938.34;;;18.68;53.74
26865;BME280;40618;51.166;10.322;2023-05-29T09:03:06;97935.38;;;18.74;53.80
26865;BME280;40618;51.166;10.322;2023-05-29T09:05:32;97934.53;;;18.73;53.57
26865;BME280;40618;51.166;10.322;2023-05-29T09:07:59;97951.09;;;18.74;53.98
26865;BME280;40618;51.166;10.322;2023-05-29T09:10:25;97949.69;;;18.84;53.66
26865;BME280;40618;51.166;10.322;2023-05-29T09:12:51;97952.00;;;18.90;53.69
26865;BME280;40618;51.166;10.322;2023-05-29T09:15:19;97955.59;;;19.04;53.58
26865;BME280;40618;51.166;10.322;2023-05-29T09:17:56;97960.00;;;19.19;53.51
26865;BME280;40618;51.166;10.322;2023-05-29T09:20:24;97954.78;;;19.34;53.42
26865;BME280;40618;51.166;10.322;2023-05-29T09:22:54;97953.25;;;19.45;53.16
26865;BME280;40618;51.166;10.322;2023-05-29T09:25:26;97951.09;;;19.52;53.12
26865;BME280;40618;51.166;10.322;2023-05-29T09:28:01;97948.28;;;19.55;52.95
26865;BME280;40618;51.166;10.322;2023-05-29T09:30:45;97957.13;;;19.69;52.87
26865;BME280;40618;51.166;10.322;2023-05-29T09:33:15;97955.84;;;19.76;52.43
26865;BME280;40618;51.166;10.322;2023-05-29T09:35:43;97954.91;;;19.77;52.34
26865;BME280;40618;51.166;10.322;2023-05-29T09:38:14;97954.03;;;19.76;52.33
26865;BME280;40618;51.166;10.322;2023-05-29T09:40:41;97949.50;;;19.80;52.32
26865;BME280;40618;51.166;10.322;2023-05-29T09:45:48;97952.25;;;19.93;52.37
26865;BME280;40618;51.166;10.322;2023-05-29T09:48:17;97962.75;;;19.93;52.09
26865;BME280;40618;51.166;10.322;2023-05-29T09:50:45;97956.66;;;20.07;51.99
26865;BME280;40618;51.166;10.322;2023-05-29T09:53:26;97945.84;;;20.11;51.74
26865;BME280;40618;51.166;10.322;2023-05-29T09:55:57;97943.88;;;20.15;51.75
26865;BME280;40618;51.166;10.322;2023-05-29T09:58:25;97955.34;;;20.28;51.61
26865;BME280;40618;51.166;10.322;2023-05-29T10:00:52;97956.44;;;20.39;51.40
26865;BME280;40618;51.166;10.322;2023-05-29T10:03:18;97958.31;;;20.51;51.34
26865;BME280;40618;51.166;10.322;2023-05-29T10:05:50;97943.75;;;20.45;50.91
26865;BME280;40618;51.166;10.322;2023-05-29T10:08:20;97937.00;;;20.27;50.60
26865;BME280;40618;51.166;10.322;2023-05-29T10:10:49;97944.22;;;20.38;51.00
26865;BME280;40618;51.166;10.322;2023-05-29T10:13:33;97936.13;;;20.55;51.03
26865;BME280;40618;51.166;10.322;2023-05-29T10:16:03;97928.44;;;20.52;50.77
26865;BME280;40618;51.166;10.322;2023-05-29T10:18:42;97935.56;;;20.65;50.75
26865;BME280;40618;51.166;10.322;2023-05-29T10:21:14;97939.13;;;20.78;50.45
26865;BME280;40618;51.166;10.322;2023-05-29T10:23:43;97942.66;;;20.91;50.26
26865;BME280;40618;51.166;10.322;2023-05-29T10:26:21;97938.47;;;21.02;50.15
26865;BME280;40618;51.166;10.322;2023-05-29T10:29:56;97941.69;;;21.20;50.18
26865;BME280;40618;51.166;10.322;2023-05-29T10:35:16;97931.94;;;21.35;49.58
26865;BME280;40618;51.166;10.322;2023-05-29T10:37:53;97937.84;;;21.38;49.39
26865;BME280;40618;51.166;10.322;2023-05-29T10:40:26;97930.78;;;21.26;49.02
26865;BME280;40618;51.166;10.322;2023-05-29T10:42:53;97937.47;;;21.17;49.35
26865;BME280;40618;51.166;10.322;2023-05-29T10:50:42;97925.47;;;21.53;48.78
26865;BME280;40618;51.166;10.322;2023-05-29T10:53:14;97931.88;;;21.49;48.82
26865;BME280;40618;51.166;10.322;2023-05-29T10:55:42;97928.03;;;21.40;48.61
26865;BME280;40618;51.166;10.322;2023-05-29T10:58:21;97924.25;;;21.32;48.40
26865;BME280;40618;51.166;10.322;2023-05-29T11:00:49;97930.88;;;21.24;48.63
26865;BME280;40618;51.166;10.322;2023-05-29T11:03:20;97930.22;;;21.21;48.66
26865;BME280;40618;51.166;10.322;2023-05-29T11:08:53;97933.41;;;21.39;48.39
26865;BME280;40618;51.166;10.322;2023-05-29T11:11:38;97931.53;;;21.41;48.30
26865;BME280;40618;51.166;10.322;2023-05-29T11:14:07;97936.03;;;21.53;48.51
26865;BME280;40618;51.166;10.322;2023-05-29T11:18:59;97940.03;;;21.32;48.20
26865;BME280;40618;51.166;10.322;2023-05-29T11:24:27;97939.53;;;20.99;48.25
26865;BME280;40618;51.166;10.322;2023-05-29T11:26:55;97935.28;;;20.96;48.26
26865;BME280;40618;51.166;10.322;2023-05-29T11:29:28;97919.91;;;20.90;48.11
26865;BME280;40618;51.166;10.322;2023-05-29T11:32:04;97934.44;;;20.83;48.09
26865;BME280;40618;51.166;10.322;2023-05-29T11:34:33;97926.00;;;20.91;48.27
26865;BME280;40618;51.166;10.322;2023-05-29T11:37:00;97915.72;;;21.01;48.38
26865;BME280;40618;51.166;10.322;2023-05-29T11:39:26;97918.56;;;20.98;48.16
26865;BME280;40618;51.166;10.322;2023-05-29T11:41:52;97917.63;;;20.99;48.32
26865;BME280;40618;51.166;10.322;2023-05-29T11:44:19;97917.56;;;21.13;48.20
26865;BME280;40618;51.166;10.322;2023-05-29T11:46:45;97903.50;;;21.27;48.22
26865;BME280;40618;51.166;10.322;2023-05-29T11:49:11;97908.66;;;21.28;47.80
26865;BME280;40618;51.166;10.322;2023-05-29T11:51:37;97908.44;;;21.32;47.96
26865;BME280;40618;51.166;10.322;2023-05-29T11:54:06;97910.25;;;21.44;47.83
26865;BME280;40618;51.166;10.322;2023-05-29T11:56:32;97908.25;;;21.47;47.82
26865;BME280;40618;51.166;10.322;2023-05-29T11:58:58;97909.84;;;21.50;47.63
26865;BME280;40618;51.166;10.322;2023-05-29T12:01:25;97896.25;;;21.43;47.32
26865;BME280;40618;51.166;10.322;2023-05-29T12:03:52;97904.88;;;21.33;47.68
26865;BME280;40618;51.166;10.322;2023-05-29T12:06:34;97901.59;;;21.29;47.80
26865;BME280;40618;51.166;10.322;2023-05-29T12:09:03;97905.06;;;21.29;47.47
26865;BME280;40618;51.166;10.322;2023-05-29T12:11:30;97901.91;;;21.37;47.52
26865;BME280;40618;51.166;10.322;2023-05-29T12:13:58;97900.91;;;21.53;47.79
26865;BME280;40618;51.166;10.322;2023-05-29T12:16:29;97896.81;;;21.74;47.50
26865;BME280;40618;51.166;10.322;2023-05-29T12:18:56;97895.78;;;21.90;47.48
26865;BME280;40618;51.166;10.322;2023-05-29T12:21:22;97890.47;;;22.03;47.35
26865;BME280;40618;51.166;10.322;2023-05-29T12:23:51;97892.03;;;22.18;47.14
26865;BME280;40618;51.166;10.322;2023-05-29T12:26:21;97902.69;;;22.17;46.80
26865;BME280;40618;51.166;10.322;2023-05-29T12:28:49;97903.31;;;22.07;46.68
26865;BME280;40618;51.166;10.322;2023-05-29T12:31:26;97910.44;;;21.94;46.55
26865;BME280;40618;51.166;10.322;2023-05-29T12:33:53;97911.56;;;21.77;46.62
26865;BME280;40618;51.166;10.322;2023-05-29T12:36:19;97915.03;;;21.64;46.42
26865;BME280;40618;51.166;10.322;2023-05-29T12:38:49;97917.34;;;21.56;46.68
26865;BME280;40618;51.166;10.322;2023-05-29T12:41:23;97930.94;;;21.50;46.52
26865;BME280;40618;51.166;10.322;2023-05-29T12:43:49;97920.69;;;21.45;46.64
26865;BME280;40618;51.166;10.322;2023-05-29T12:46:16;97924.34;;;21.30;46.50
26865;BME280;40618;51.166;10.322;2023-05-29T12:48:41;97922.44;;;21.19;46.60
26865;BME280;40618;51.166;10.322;2023-05-29T12:51:07;97923.78;;;21.12;46.64
26865;BME280;40618;51.166;10.322;2023-05-29T12:53:33;97911.13;;;21.17;46.75
26865;BME280;40618;51.166;10.322;2023-05-29T12:55:58;97913.66;;;21.46;46.75
26865;BME280;40618;51.166;10.322;2023-05-29T12:58:24;97911.69;;;21.62;46.23
26865;BME280;40618;51.166;10.322;2023-05-29T13:00:53;97906.81;;;21.56;46.25
26865;BME280;40618;51.166;10.322;2023-05-29T13:03:22;97906.19;;;21.66;46.13
26865;BME280;40618;51.166;10.322;2023-05-29T13:05:51;97894.38;;;21.71;46.18
26865;BME280;40618;51.166;10.322;2023-05-29T13:08:18;97898.41;;;21.64;46.01
26865;BME280;40618;51.166;10.322;2023-05-29T13:10:45;97901.56;;;21.82;46.56
26865;BME280;40618;51.166;10.322;2023-05-29T13:13:11;97899.22;;;22.03;46.13
26865;BME280;40618;51.166;10.322;2023-05-29T13:15:37;97901.75;;;22.05;45.88
26865;BME280;40618;51.166;10.322;2023-05-29T13:18:05;97902.69;;;22.17;46.02